Terminal Aerodrome Forecast
Issued by NWS

Home | Current Version | Previous Version | Text Only | Print | Product List | Glossary On
Versions: 1 2 3 4 5 6 7 8 9 10 11 12 13 14
000
FTUS41 KCAR 181120
TAFFVE
TAF
KFVE 181120Z 1812/1912 36004KT P6SM SCT250
     FM181400 36004KT P6SM BKN050
     FM190300 35004KT P6SM BKN025
     FM190500 34004KT P6SM BKN050=

USA.gov is the U.S. government's official web portal to all federal, state and local government web resources and services.